createdAt,value
2019-01-15T00:00:04.513Z,36.1
2019-01-15T00:03:26.706Z,36.1
2019-01-15T00:06:48.838Z,36.1
2019-01-15T00:10:10.946Z,36.1
2019-01-15T00:13:33.149Z,36.1
2019-01-15T00:16:55.437Z,36.1
2019-01-15T00:20:17.607Z,36.1
2019-01-15T00:23:39.727Z,35.9
2019-01-15T00:27:01.933Z,35.9
2019-01-15T00:30:24.146Z,36.1
2019-01-15T00:33:46.171Z,36.1
2019-01-15T00:37:08.426Z,36.1
2019-01-15T00:40:30.549Z,36.1
2019-01-15T00:43:52.839Z,35.9
2019-01-15T00:47:14.919Z,36.1
2019-01-15T00:50:37.059Z,36
2019-01-15T00:53:59.273Z,36
2019-01-15T00:57:21.359Z,36
2019-01-15T01:00:43.655Z,36
2019-01-15T01:04:05.917Z,36
2019-01-15T01:07:28.060Z,36
2019-01-15T01:10:50.133Z,36
2019-01-15T01:14:12.252Z,36
2019-01-15T01:17:34.458Z,35.9
2019-01-15T01:20:56.727Z,35.9
2019-01-15T01:24:18.804Z,36
2019-01-15T01:27:41.072Z,35.9
2019-01-15T01:31:03.159Z,35.9
2019-01-15T01:34:26.733Z,35.9
2019-01-15T01:37:47.569Z,35.9
2019-01-15T01:41:09.661Z,35.9
2019-01-15T01:44:31.981Z,35.9
2019-01-15T01:47:54.069Z,35.9
2019-01-15T01:51:16.235Z,36
2019-01-15T01:54:38.365Z,35.9
2019-01-15T01:58:00.644Z,35.9
2019-01-15T02:01:22.855Z,35.9
2019-01-15T02:04:44.902Z,35.9
2019-01-15T02:08:07.149Z,35.9
2019-01-15T02:11:29.356Z,35.9
2019-01-15T02:14:51.645Z,35.9
2019-01-15T02:18:13.571Z,35.9
2019-01-15T02:21:35.846Z,36
2019-01-15T02:24:57.906Z,36
2019-01-15T02:28:20.258Z,36
2019-01-15T02:31:42.248Z,35.9
2019-01-15T02:35:04.549Z,35.9
2019-01-15T02:38:26.679Z,35.9
2019-01-15T02:41:48.814Z,35.9
2019-01-15T02:45:10.982Z,35.9
2019-01-15T02:48:33.251Z,35.9
2019-01-15T02:51:55.457Z,35.9
2019-01-15T02:55:17.593Z,35.8
2019-01-15T02:58:39.690Z,35.8
2019-01-15T03:02:01.908Z,35.8
2019-01-15T03:05:24.117Z,35.8
2019-01-15T03:08:46.325Z,35.8
2019-01-15T03:12:08.485Z,35.8
2019-01-15T03:15:30.503Z,35.8
2019-01-15T03:18:52.862Z,35.7
2019-01-15T03:22:14.980Z,35.8
2019-01-15T03:25:37.101Z,35.8
2019-01-15T03:28:59.310Z,35.7
2019-01-15T03:32:21.416Z,35.7
2019-01-15T03:35:43.542Z,35.7
2019-01-15T03:39:05.799Z,35.7
2019-01-15T03:42:28.053Z,35.7
2019-01-15T03:45:50.500Z,35.7
2019-01-15T03:49:12.272Z,35.7
2019-01-15T03:52:34.557Z,35.7
2019-01-15T03:55:56.680Z,35.7
2019-01-15T03:59:18.943Z,35.6
2019-01-15T04:02:41.583Z,35.6
2019-01-15T04:06:03.104Z,35.6
2019-01-15T04:09:25.370Z,35.6
2019-01-15T04:12:47.531Z,35.6
2019-01-15T04:16:09.710Z,35.6
2019-01-15T04:19:31.970Z,35.6
2019-01-15T04:22:54.155Z,35.6
2019-01-15T04:26:16.283Z,35.6
2019-01-15T04:29:38.373Z,35.6
2019-01-15T04:33:00.688Z,35.6
2019-01-15T04:36:22.671Z,35.6
2019-01-15T04:39:45.042Z,35.6
2019-01-15T04:43:07.078Z,35.6
2019-01-15T04:46:29.232Z,35.6
2019-01-15T04:49:51.473Z,35.6
2019-01-15T04:56:35.725Z,35.5
2019-01-15T04:59:58.003Z,35.6
2019-01-15T05:03:20.162Z,35.6
2019-01-15T05:06:42.317Z,35.6
2019-01-15T05:10:04.572Z,35.6
2019-01-15T05:13:26.709Z,35.6
2019-01-15T05:16:48.898Z,35.5
2019-01-15T05:20:11.091Z,35.5
2019-01-15T05:23:33.146Z,35.5
2019-01-15T05:26:55.406Z,35.4
2019-01-15T05:30:17.740Z,35.4
2019-01-15T05:33:39.736Z,35.5
2019-01-15T05:37:01.907Z,35.5
2019-01-15T05:40:24.071Z,35.5
2019-01-15T05:43:46.391Z,35.4
2019-01-15T05:47:08.367Z,35.5
2019-01-15T05:50:30.671Z,35.5
2019-01-15T05:53:52.802Z,35.5
2019-01-15T05:57:14.871Z,35.5
2019-01-15T06:00:37.105Z,35.4
2019-01-15T06:03:59.313Z,35.4
2019-01-15T06:07:21.625Z,35.4
2019-01-15T06:10:43.604Z,35.5
2019-01-15T06:14:05.829Z,35.4
2019-01-15T06:17:28.006Z,35.5
2019-01-15T06:20:50.205Z,35.5
2019-01-15T06:24:12.317Z,35.5
2019-01-15T06:27:34.520Z,35.5
2019-01-15T06:30:56.717Z,35.5
2019-01-15T06:34:18.896Z,35.5
2019-01-15T06:37:41.017Z,35.6
2019-01-15T06:41:03.236Z,35.6
2019-01-15T06:44:25.414Z,36.9
2019-01-15T06:47:47.622Z,38
2019-01-15T06:51:09.731Z,38
2019-01-15T06:54:32.068Z,37.9
2019-01-15T07:01:16.238Z,38
2019-01-15T07:04:38.420Z,38
2019-01-15T07:08:00.630Z,38.1
2019-01-15T07:11:22.834Z,38
2019-01-15T07:14:44.921Z,38
2019-01-15T07:18:07.123Z,36.7
2019-01-15T07:21:29.409Z,32.2
2019-01-15T07:24:51.528Z,32.1
2019-01-15T07:28:13.708Z,32.6
2019-01-15T07:31:35.910Z,32.5
2019-01-15T07:34:58.025Z,33.1
2019-01-15T07:38:20.306Z,32.8
2019-01-15T07:41:42.452Z,32.7
2019-01-15T07:45:04.604Z,32.8
2019-01-15T07:48:26.842Z,33
2019-01-15T07:51:48.985Z,33.2
2019-01-15T07:55:11.036Z,33.4
2019-01-15T07:58:33.236Z,33.5
2019-01-15T08:01:55.437Z,33.7
2019-01-15T08:05:17.545Z,34
2019-01-15T08:08:42.113Z,33.9
2019-01-15T08:12:01.941Z,34.1
2019-01-15T08:15:24.140Z,34.3
2019-01-15T08:18:46.451Z,34.6
2019-01-15T08:22:08.465Z,34.6
2019-01-15T08:25:30.614Z,34.6
2019-01-15T08:28:52.853Z,34.7
2019-01-15T08:32:15.045Z,34.7
2019-01-15T08:35:37.218Z,35
2019-01-15T08:38:59.365Z,35.3
2019-01-15T08:45:43.732Z,35
2019-01-15T08:49:05.859Z,35
2019-01-15T08:55:50.253Z,35
2019-01-15T08:59:12.453Z,35
2019-01-15T09:02:34.600Z,35
2019-01-15T09:05:56.762Z,35
2019-01-15T09:09:19.069Z,35
2019-01-15T09:12:41.055Z,35
2019-01-15T09:16:03.288Z,35
2019-01-15T09:19:25.501Z,35
2019-01-15T09:26:09.868Z,35.2
2019-01-15T09:29:32.033Z,35.5
2019-01-15T09:36:16.383Z,35.4
2019-01-15T09:39:38.545Z,35.4
2019-01-15T09:43:00.758Z,35.4
2019-01-15T09:46:22.853Z,35.4
2019-01-15T09:49:45.073Z,35.4
2019-01-15T09:53:07.239Z,35.4
2019-01-15T09:56:29.317Z,35.4
2019-01-15T09:59:51.575Z,35.4
2019-01-15T10:06:35.846Z,35.2
2019-01-15T10:09:58.046Z,35.3
2019-01-15T10:20:04.572Z,35.3
2019-01-15T10:30:11.062Z,35.4
2019-01-15T10:36:55.415Z,35.5
2019-01-15T10:40:17.623Z,35.5
2019-01-15T10:43:39.891Z,35.4
2019-01-15T10:47:02.039Z,35.6
2019-01-15T10:50:24.206Z,35.5
2019-01-15T10:53:46.395Z,35.6
2019-01-15T10:57:08.495Z,35.6
2019-01-15T11:00:30.837Z,35.6
2019-01-15T11:07:15.167Z,35.6
2019-01-15T11:10:37.184Z,35.6
2019-01-15T11:17:21.592Z,35.5
2019-01-15T11:20:43.790Z,35.4
2019-01-15T11:27:28.204Z,35.4
2019-01-15T11:30:50.295Z,35.4
2019-01-15T11:37:37.314Z,35.5
2019-01-15T11:40:56.801Z,35.5
2019-01-15T11:47:41.190Z,35.6
2019-01-15T11:51:03.304Z,35.7
2019-01-15T11:54:25.587Z,35.7
2019-01-15T11:57:47.598Z,35.9
2019-01-15T12:01:09.785Z,35.9
2019-01-15T12:04:32.085Z,35.9
2019-01-15T12:07:54.211Z,35.9
2019-01-15T12:11:16.355Z,35.9
2019-01-15T12:18:00.609Z,36.3
2019-01-15T12:21:22.814Z,36.4
2019-01-15T12:24:45.112Z,36.6
2019-01-15T12:28:07.139Z,36.6
2019-01-15T12:31:29.310Z,36.7
2019-01-15T12:38:13.720Z,36.7
2019-01-15T12:41:35.829Z,36.7
2019-01-15T12:44:57.995Z,36.8
2019-01-15T12:48:20.277Z,36.8
2019-01-15T12:51:42.402Z,36.9
2019-01-15T12:55:04.622Z,36.9
2019-01-15T12:58:26.725Z,36.3
2019-01-15T13:01:48.945Z,34.7
2019-01-15T13:05:11.143Z,33.7
2019-01-15T13:08:33.303Z,33.3
2019-01-15T13:11:55.431Z,33.4
2019-01-15T13:15:17.700Z,33.8
2019-01-15T13:18:39.826Z,32.7
2019-01-15T13:22:02.028Z,32.1
2019-01-15T13:25:24.158Z,32
2019-01-15T13:28:46.310Z,32.1
2019-01-15T13:32:08.495Z,32.7
2019-01-15T13:35:30.722Z,32.9
2019-01-15T13:38:52.922Z,33
2019-01-15T13:42:14.991Z,33.2
2019-01-15T13:45:37.160Z,33.5
2019-01-15T13:48:59.407Z,33.9
2019-01-15T13:52:21.492Z,34.1
2019-01-15T13:55:43.821Z,34.3
2019-01-15T13:59:05.864Z,34.4
2019-01-15T14:02:28.066Z,34.6
2019-01-15T14:05:50.310Z,34.7
2019-01-15T14:09:12.344Z,34.8
2019-01-15T14:12:34.635Z,34.9
2019-01-15T14:15:56.747Z,35
2019-01-15T14:19:18.951Z,35
2019-01-15T14:22:41.041Z,35.1
2019-01-15T14:26:03.413Z,35.1
2019-01-15T14:29:25.538Z,35.2
2019-01-15T14:32:47.610Z,35.3
2019-01-15T14:36:12.497Z,35.3
2019-01-15T14:39:31.952Z,35.3
2019-01-15T14:42:54.275Z,35.4
2019-01-15T14:46:16.358Z,35.4
2019-01-15T14:49:38.468Z,35.5
2019-01-15T14:53:00.744Z,35.5
2019-01-15T14:59:45.061Z,35.6
2019-01-15T15:03:07.247Z,35.7
2019-01-15T15:06:29.360Z,35.7
2019-01-15T15:09:51.558Z,35.8
2019-01-15T15:13:13.729Z,35.8
2019-01-15T15:16:35.955Z,35.8
2019-01-15T15:19:58.059Z,35.9
2019-01-15T15:23:20.207Z,35.9
2019-01-15T15:26:42.381Z,36
2019-01-15T15:30:04.558Z,36
2019-01-15T15:33:26.849Z,36.1
2019-01-15T15:36:48.937Z,36.2
2019-01-15T15:40:11.154Z,36.2
2019-01-15T15:43:33.294Z,36.3
2019-01-15T15:46:55.483Z,36.3
2019-01-15T15:50:17.577Z,36.4
2019-01-15T15:53:41.431Z,36.4
2019-01-15T15:57:01.970Z,36.5
2019-01-15T16:00:24.150Z,36.5
2019-01-15T16:03:46.445Z,40
2019-01-15T16:10:30.685Z,40
2019-01-15T16:13:52.864Z,40
2019-01-15T16:17:14.902Z,39.5
2019-01-15T16:20:37.241Z,39.3
2019-01-15T16:23:59.480Z,39
2019-01-15T16:27:21.494Z,38.8
2019-01-15T16:30:43.671Z,40.7
2019-01-15T16:34:05.770Z,41.5
2019-01-15T16:37:28.007Z,41.8
2019-01-15T16:40:50.219Z,41.6
2019-01-15T16:44:12.301Z,41.3
2019-01-15T16:47:34.529Z,40.9
2019-01-15T16:50:56.767Z,40.7
2019-01-15T16:54:18.923Z,40.5
2019-01-15T16:57:41.050Z,40.4
2019-01-15T17:01:03.153Z,40.1
2019-01-15T17:04:25.363Z,40.1
2019-01-15T17:07:47.525Z,40
2019-01-15T17:11:09.676Z,39.9
2019-01-15T17:14:31.925Z,40
2019-01-15T17:17:54.021Z,39.8
2019-01-15T17:21:16.237Z,39.9
2019-01-15T17:24:38.432Z,39.8
2019-01-15T17:28:00.604Z,39.7
2019-01-15T17:31:22.711Z,39.7
2019-01-15T17:34:44.906Z,39.6
2019-01-15T17:38:07.154Z,39.6
2019-01-15T17:41:29.322Z,39.5
2019-01-15T17:44:51.404Z,39.5
2019-01-15T17:48:13.567Z,39.4
2019-01-15T17:51:35.753Z,39.3
2019-01-15T17:54:57.953Z,39.3
2019-01-15T17:58:23.173Z,39.2
2019-01-15T18:01:42.296Z,39.2
2019-01-15T18:05:04.522Z,39.2
2019-01-15T18:08:26.649Z,39
2019-01-15T18:11:48.871Z,39
2019-01-15T18:15:11.117Z,38.9
2019-01-15T18:18:33.155Z,38.9
2019-01-15T18:21:55.322Z,38.9
2019-01-15T18:25:17.524Z,38.8
2019-01-15T18:28:39.672Z,38.8
2019-01-15T18:32:01.916Z,38.7
2019-01-15T18:35:23.999Z,38.7
2019-01-15T18:38:46.273Z,38.5
2019-01-15T18:42:08.440Z,38.5
2019-01-15T18:45:30.595Z,38.5
2019-01-15T18:48:52.711Z,38.4
2019-01-15T18:52:14.880Z,38.4
2019-01-15T18:55:37.056Z,38.3
2019-01-15T18:58:59.286Z,38.3
2019-01-15T19:02:21.411Z,38.3
2019-01-15T19:05:43.562Z,38.2
2019-01-15T19:09:05.749Z,38.2
2019-01-15T19:12:28.019Z,38.2
2019-01-15T19:15:50.112Z,38.2
2019-01-15T19:19:12.255Z,38.3
2019-01-15T19:22:34.432Z,38.2
2019-01-15T19:25:56.671Z,38.2
2019-01-15T19:29:18.848Z,38.2
2019-01-15T19:32:41.040Z,38.2
2019-01-15T19:36:03.120Z,38.2
2019-01-15T19:39:25.400Z,38.2
2019-01-15T19:42:47.594Z,38.2
2019-01-15T19:46:09.746Z,38.1
2019-01-15T19:49:31.897Z,38.2
2019-01-15T19:52:53.995Z,38.2
2019-01-15T19:56:16.282Z,38.1
2019-01-15T19:59:38.424Z,38.1
2019-01-15T20:03:00.523Z,38
2019-01-15T20:06:22.755Z,38
2019-01-15T20:09:44.867Z,38
2019-01-15T20:13:07.110Z,37.9
2019-01-15T20:16:29.209Z,37.9
2019-01-15T20:19:51.380Z,37.9
2019-01-15T20:23:13.844Z,37.9
2019-01-15T20:26:35.798Z,37.9
2019-01-15T20:29:57.973Z,37.9
2019-01-15T20:33:20.192Z,37.8
2019-01-15T20:36:42.245Z,37.7
2019-01-15T20:40:04.420Z,37.7
2019-01-15T20:43:26.662Z,37.7
2019-01-15T20:46:48.783Z,37.7
2019-01-15T20:50:10.993Z,37.7
2019-01-15T20:53:33.194Z,37.7
2019-01-15T20:56:55.334Z,37.7
2019-01-15T21:00:17.505Z,37.7
2019-01-15T21:03:39.670Z,37.7
2019-01-15T21:07:01.924Z,37.7
2019-01-15T21:10:23.983Z,37.6
2019-01-15T21:13:46.206Z,37.6
2019-01-15T21:17:08.336Z,37.6
2019-01-15T21:20:30.586Z,37.7
2019-01-15T21:27:14.858Z,37.7
2019-01-15T21:30:37.036Z,37.6
2019-01-15T21:33:59.270Z,37.6
2019-01-15T21:37:21.385Z,37.6
2019-01-15T21:40:43.555Z,37.6
2019-01-15T21:44:05.811Z,37.5
2019-01-15T21:47:27.965Z,37.5
2019-01-15T21:50:50.152Z,37.5
2019-01-15T21:54:12.370Z,37.4
2019-01-15T21:57:34.425Z,37.4
2019-01-15T22:00:56.600Z,37.4
2019-01-15T22:04:18.779Z,37.4
2019-01-15T22:07:41.061Z,37.3
2019-01-15T22:11:03.148Z,37.3
2019-01-15T22:14:25.312Z,37.3
2019-01-15T22:17:47.678Z,37.2
2019-01-15T22:21:09.684Z,37.3
2019-01-15T22:24:31.931Z,37.3
2019-01-15T22:27:54.993Z,37.2
2019-01-15T22:31:16.279Z,37.2
2019-01-15T22:34:38.439Z,37.2
2019-01-15T22:38:00.610Z,37.3
2019-01-15T22:41:22.769Z,37.4
2019-01-15T22:44:44.875Z,37.4
2019-01-15T22:48:07.068Z,37.4
2019-01-15T22:51:29.265Z,37.4
2019-01-15T22:54:51.419Z,37.1
2019-01-15T22:58:13.641Z,37.1
2019-01-15T23:01:35.741Z,36.9
2019-01-15T23:04:57.950Z,36.7
2019-01-15T23:08:20.175Z,36.5
2019-01-15T23:11:42.287Z,36.5
2019-01-15T23:15:04.635Z,36.5
2019-01-15T23:18:26.611Z,36.5
2019-01-15T23:21:48.794Z,36.5
2019-01-15T23:25:11.072Z,36.5
2019-01-15T23:28:33.162Z,36.6
2019-01-15T23:31:55.395Z,36.5
2019-01-15T23:35:17.513Z,36.6
2019-01-15T23:38:39.687Z,36.5
2019-01-15T23:42:01.956Z,36.5
2019-01-15T23:45:24.086Z,36.5
2019-01-15T23:48:46.325Z,36.5
2019-01-15T23:52:08.430Z,36.5
2019-01-15T23:55:30.596Z,36.4
2019-01-15T23:58:52.808Z,36.5
